sensor_id;sensor_type;location;lat;lon;timestamp;temperature;humidity
38902;DHT22;24661;53.566;9.910;2023-05-07T00:00:45;9.10;99.90
38902;DHT22;24661;53.566;9.910;2023-05-07T00:03:11;9.20;99.90
38902;DHT22;24661;53.566;9.910;2023-05-07T00:05:36;9.20;99.90
38902;DHT22;24661;53.566;9.910;2023-05-07T00:08:03;9.10;99.90
38902;DHT22;24661;53.566;9.910;2023-05-07T00:10:29;9.10;99.90
38902;DHT22;24661;53.566;9.910;2023-05-07T00:12:55;9.10;99.90
38902;DHT22;24661;53.566;9.910;2023-05-07T00:15:20;9.20;99.90
38902;DHT22;24661;53.566;9.910;2023-05-07T00:17:46;9.20;99.90
38902;DHT22;24661;53.566;9.910;2023-05-07T00:20:12;9.30;99.90
38902;DHT22;24661;53.566;9.910;2023-05-07T00:22:37;9.20;99.90
38902;DHT22;24661;53.566;9.910;2023-05-07T00:25:05;9.10;99.90
38902;DHT22;24661;53.566;9.910;2023-05-07T00:27:31;9.00;99.90
38902;DHT22;24661;53.566;9.910;2023-05-07T00:29:56;8.90;99.90
38902;DHT22;24661;53.566;9.910;2023-05-07T00:32:22;8.90;99.90
38902;DHT22;24661;53.566;9.910;2023-05-07T00:34:47;9.00;99.90
38902;DHT22;24661;53.566;9.910;2023-05-07T00:37:13;8.90;99.90
38902;DHT22;24661;53.566;9.910;2023-05-07T00:39:39;8.90;99.90
38902;DHT22;24661;53.566;9.910;2023-05-07T00:42:04;9.00;99.90
38902;DHT22;24661;53.566;9.910;2023-05-07T00:44:30;9.00;99.90
38902;DHT22;24661;53.566;9.910;2023-05-07T00:46:57;9.00;99.90
38902;DHT22;24661;53.566;9.910;2023-05-07T00:49:35;9.00;99.90
38902;DHT22;24661;53.566;9.910;2023-05-07T00:52:02;9.00;99.90
38902;DHT22;24661;53.566;9.910;2023-05-07T00:54:28;9.00;99.90
38902;DHT22;24661;53.566;9.910;2023-05-07T00:56:54;9.00;99.90
38902;DHT22;24661;53.566;9.910;2023-05-07T00:59:20;9.00;99.90
38902;DHT22;24661;53.566;9.910;2023-05-07T01:01:46;9.00;99.90
38902;DHT22;24661;53.566;9.910;2023-05-07T01:04:11;9.00;99.90
38902;DHT22;24661;53.566;9.910;2023-05-07T01:06:37;9.00;99.90
38902;DHT22;24661;53.566;9.910;2023-05-07T01:09:04;9.00;99.90
38902;DHT22;24661;53.566;9.910;2023-05-07T01:11:30;9.00;99.90
38902;DHT22;24661;53.566;9.910;2023-05-07T01:13:56;9.00;99.90
38902;DHT22;24661;53.566;9.910;2023-05-07T01:16:23;9.00;99.90
38902;DHT22;24661;53.566;9.910;2023-05-07T01:18:49;9.00;99.90
38902;DHT22;24661;53.566;9.910;2023-05-07T01:21:16;9.10;99.90
38902;DHT22;24661;53.566;9.910;2023-05-07T01:23:44;9.10;99.90
38902;DHT22;24661;53.566;9.910;2023-05-07T01:26:10;9.20;99.90
38902;DHT22;24661;53.566;9.910;2023-05-07T01:28:36;9.10;99.90
38902;DHT22;24661;53.566;9.910;2023-05-07T01:31:03;9.10;99.90
38902;DHT22;24661;53.566;9.910;2023-05-07T01:33:32;9.10;99.90
38902;DHT22;24661;53.566;9.910;2023-05-07T01:35:59;9.00;99.90
38902;DHT22;24661;53.566;9.910;2023-05-07T01:38:28;8.90;99.90
38902;DHT22;24661;53.566;9.910;2023-05-07T01:40:53;9.00;99.90
38902;DHT22;24661;53.566;9.910;2023-05-07T01:43:19;9.10;99.90
38902;DHT22;24661;53.566;9.910;2023-05-07T01:45:46;9.10;99.90
38902;DHT22;24661;53.566;9.910;2023-05-07T01:48:12;9.10;99.90
38902;DHT22;24661;53.566;9.910;2023-05-07T01:50:39;9.20;99.90
38902;DHT22;24661;53.566;9.910;2023-05-07T01:53:05;9.10;99.90
38902;DHT22;24661;53.566;9.910;2023-05-07T01:55:31;9.10;99.90
38902;DHT22;24661;53.566;9.910;2023-05-07T01:57:57;9.20;99.90
38902;DHT22;24661;53.566;9.910;2023-05-07T02:00:23;9.10;99.90
38902;DHT22;24661;53.566;9.910;2023-05-07T02:02:48;9.20;99.90
38902;DHT22;24661;53.566;9.910;2023-05-07T02:05:14;9.20;99.90
38902;DHT22;24661;53.566;9.910;2023-05-07T02:07:39;9.20;99.90
38902;DHT22;24661;53.566;9.910;2023-05-07T02:10:05;9.30;99.90
38902;DHT22;24661;53.566;9.910;2023-05-07T02:12:31;9.30;99.90
38902;DHT22;24661;53.566;9.910;2023-05-07T02:14:57;9.20;99.90
38902;DHT22;24661;53.566;9.910;2023-05-07T02:17:22;9.20;99.90
38902;DHT22;24661;53.566;9.910;2023-05-07T02:19:48;9.10;99.90
38902;DHT22;24661;53.566;9.910;2023-05-07T02:22:13;9.20;99.90
38902;DHT22;24661;53.566;9.910;2023-05-07T02:24:39;9.20;99.90
38902;DHT22;24661;53.566;9.910;2023-05-07T02:27:04;9.20;99.90
38902;DHT22;24661;53.566;9.910;2023-05-07T02:29:30;9.30;99.90
38902;DHT22;24661;53.566;9.910;2023-05-07T02:31:56;9.20;99.90
38902;DHT22;24661;53.566;9.910;2023-05-07T02:34:21;9.20;99.90
38902;DHT22;24661;53.566;9.910;2023-05-07T02:36:47;9.30;99.90
38902;DHT22;24661;53.566;9.910;2023-05-07T02:39:13;9.30;99.90
38902;DHT22;24661;53.566;9.910;2023-05-07T02:41:39;9.40;99.90
38902;DHT22;24661;53.566;9.910;2023-05-07T02:44:05;9.40;99.90
38902;DHT22;24661;53.566;9.910;2023-05-07T02:46:31;9.30;99.90
38902;DHT22;24661;53.566;9.910;2023-05-07T02:48:57;9.30;99.90
38902;DHT22;24661;53.566;9.910;2023-05-07T02:51:23;9.40;99.90
38902;DHT22;24661;53.566;9.910;2023-05-07T02:53:48;9.40;99.90
38902;DHT22;24661;53.566;9.910;2023-05-07T02:56:14;9.30;99.90
38902;DHT22;24661;53.566;9.910;2023-05-07T02:58:40;9.40;99.90
38902;DHT22;24661;53.566;9.910;2023-05-07T03:01:07;9.30;99.90
38902;DHT22;24661;53.566;9.910;2023-05-07T03:03:34;9.30;99.90
38902;DHT22;24661;53.566;9.910;2023-05-07T03:06:00;9.30;99.90
38902;DHT22;24661;53.566;9.910;2023-05-07T03:08:26;9.30;99.90
38902;DHT22;24661;53.566;9.910;2023-05-07T03:10:51;9.20;99.90
38902;DHT22;24661;53.566;9.910;2023-05-07T03:13:17;9.20;99.90
38902;DHT22;24661;53.566;9.910;2023-05-07T03:15:43;9.10;99.90
38902;DHT22;24661;53.566;9.910;2023-05-07T03:18:09;9.10;99.90
38902;DHT22;24661;53.566;9.910;2023-05-07T03:20:34;9.00;99.90
38902;DHT22;24661;53.566;9.910;2023-05-07T03:23:01;9.10;99.90
38902;DHT22;24661;53.566;9.910;2023-05-07T03:25:27;9.00;99.90
38902;DHT22;24661;53.566;9.910;2023-05-07T03:27:53;8.90;99.90
38902;DHT22;24661;53.566;9.910;2023-05-07T03:30:18;8.90;99.90
38902;DHT22;24661;53.566;9.910;2023-05-07T03:32:44;8.90;99.90
38902;DHT22;24661;53.566;9.910;2023-05-07T03:35:09;8.90;99.90
38902;DHT22;24661;53.566;9.910;2023-05-07T03:37:35;9.00;99.90
38902;DHT22;24661;53.566;9.910;2023-05-07T03:40:00;9.10;99.90
38902;DHT22;24661;53.566;9.910;2023-05-07T03:42:28;9.20;99.90
38902;DHT22;24661;53.566;9.910;2023-05-07T03:44:55;9.10;99.90
38902;DHT22;24661;53.566;9.910;2023-05-07T03:47:20;9.00;99.90
38902;DHT22;24661;53.566;9.910;2023-05-07T03:49:46;8.90;99.90
38902;DHT22;24661;53.566;9.910;2023-05-07T03:52:11;8.90;99.90
38902;DHT22;24661;53.566;9.910;2023-05-07T03:54:37;8.90;99.90
38902;DHT22;24661;53.566;9.910;2023-05-07T03:57:02;9.00;99.90
38902;DHT22;24661;53.566;9.910;2023-05-07T03:59:28;9.00;99.90
38902;DHT22;24661;53.566;9.910;2023-05-07T04:01:53;9.00;99.90
38902;DHT22;24661;53.566;9.910;2023-05-07T04:04:19;9.00;99.90
38902;DHT22;24661;53.566;9.910;2023-05-07T04:06:45;9.10;99.90
38902;DHT22;24661;53.566;9.910;2023-05-07T04:09:11;9.20;99.90
38902;DHT22;24661;53.566;9.910;2023-05-07T04:11:36;9.10;99.90
38902;DHT22;24661;53.566;9.910;2023-05-07T04:14:02;9.10;99.90
38902;DHT22;24661;53.566;9.910;2023-05-07T04:16:27;9.10;99.90
38902;DHT22;24661;53.566;9.910;2023-05-07T04:18:53;9.10;99.90
38902;DHT22;24661;53.566;9.910;2023-05-07T04:21:19;9.00;99.90
38902;DHT22;24661;53.566;9.910;2023-05-07T04:23:46;9.00;99.90
38902;DHT22;24661;53.566;9.910;2023-05-07T04:26:12;9.10;99.90
38902;DHT22;24661;53.566;9.910;2023-05-07T04:28:38;9.10;99.90
38902;DHT22;24661;53.566;9.910;2023-05-07T04:31:05;9.20;99.90
38902;DHT22;24661;53.566;9.910;2023-05-07T04:33:30;9.10;99.90
38902;DHT22;24661;53.566;9.910;2023-05-07T04:35:56;9.10;99.90
38902;DHT22;24661;53.566;9.910;2023-05-07T04:38:21;9.10;99.90
38902;DHT22;24661;53.566;9.910;2023-05-07T04:40:49;9.10;99.90
38902;DHT22;24661;53.566;9.910;2023-05-07T04:43:14;9.10;99.90
38902;DHT22;24661;53.566;9.910;2023-05-07T04:45:41;9.20;99.90
38902;DHT22;24661;53.566;9.910;2023-05-07T04:48:08;9.20;99.90
38902;DHT22;24661;53.566;9.910;2023-05-07T04:50:34;9.30;99.90
38902;DHT22;24661;53.566;9.910;2023-05-07T04:52:59;9.30;99.90
38902;DHT22;24661;53.566;9.910;2023-05-07T04:55:25;9.30;99.90
38902;DHT22;24661;53.566;9.910;2023-05-07T04:57:51;9.30;99.90
38902;DHT22;24661;53.566;9.910;2023-05-07T05:00:17;9.30;99.90
38902;DHT22;24661;53.566;9.910;2023-05-07T05:02:45;9.30;99.90
38902;DHT22;24661;53.566;9.910;2023-05-07T05:05:10;9.40;99.90
38902;DHT22;24661;53.566;9.910;2023-05-07T05:07:36;9.40;99.90
38902;DHT22;24661;53.566;9.910;2023-05-07T05:10:02;9.40;99.90
38902;DHT22;24661;53.566;9.910;2023-05-07T05:12:29;9.50;99.90
38902;DHT22;24661;53.566;9.910;2023-05-07T05:14:55;9.40;99.90
38902;DHT22;24661;53.566;9.910;2023-05-07T05:17:20;9.30;99.90
38902;DHT22;24661;53.566;9.910;2023-05-07T05:19:46;9.40;99.90
38902;DHT22;24661;53.566;9.910;2023-05-07T05:22:11;9.40;99.90
38902;DHT22;24661;53.566;9.910;2023-05-07T05:24:37;9.40;99.90
38902;DHT22;24661;53.566;9.910;2023-05-07T05:27:02;9.40;99.90
38902;DHT22;24661;53.566;9.910;2023-05-07T05:29:28;9.40;99.90
38902;DHT22;24661;53.566;9.910;2023-05-07T05:31:54;9.30;99.90
38902;DHT22;24661;53.566;9.910;2023-05-07T05:34:19;9.30;99.90
38902;DHT22;24661;53.566;9.910;2023-05-07T05:36:45;9.30;99.90
38902;DHT22;24661;53.566;9.910;2023-05-07T05:39:11;9.30;99.90
38902;DHT22;24661;53.566;9.910;2023-05-07T05:41:36;9.30;99.90
38902;DHT22;24661;53.566;9.910;2023-05-07T05:44:02;9.30;99.90
38902;DHT22;24661;53.566;9.910;2023-05-07T05:46:28;9.30;99.90
38902;DHT22;24661;53.566;9.910;2023-05-07T05:48:53;9.50;99.90
38902;DHT22;24661;53.566;9.910;2023-05-07T05:51:20;9.40;99.90
38902;DHT22;24661;53.566;9.910;2023-05-07T05:53:46;9.40;99.90
38902;DHT22;24661;53.566;9.910;2023-05-07T05:56:11;9.40;99.90
38902;DHT22;24661;53.566;9.910;2023-05-07T05:58:37;9.40;99.90
38902;DHT22;24661;53.566;9.910;2023-05-07T06:01:02;9.40;99.90
38902;DHT22;24661;53.566;9.910;2023-05-07T06:03:28;9.40;99.90
38902;DHT22;24661;53.566;9.910;2023-05-07T06:05:54;9.50;99.90
38902;DHT22;24661;53.566;9.910;2023-05-07T06:08:19;9.50;99.90
38902;DHT22;24661;53.566;9.910;2023-05-07T06:10:45;9.50;99.90
38902;DHT22;24661;53.566;9.910;2023-05-07T06:13:10;9.50;99.90
38902;DHT22;24661;53.566;9.910;2023-05-07T06:15:36;9.60;99.90
38902;DHT22;24661;53.566;9.910;2023-05-07T06:18:02;9.60;99.90
38902;DHT22;24661;53.566;9.910;2023-05-07T06:20:27;9.70;99.90
38902;DHT22;24661;53.566;9.910;2023-05-07T06:22:54;9.60;99.90
38902;DHT22;24661;53.566;9.910;2023-05-07T06:25:19;9.60;99.90
38902;DHT22;24661;53.566;9.910;2023-05-07T06:27:45;9.60;99.90
38902;DHT22;24661;53.566;9.910;2023-05-07T06:30:11;9.60;99.90
38902;DHT22;24661;53.566;9.910;2023-05-07T06:32:36;9.60;99.90
38902;DHT22;24661;53.566;9.910;2023-05-07T06:35:02;9.60;99.90
38902;DHT22;24661;53.566;9.910;2023-05-07T06:37:28;9.70;99.90
38902;DHT22;24661;53.566;9.910;2023-05-07T06:39:53;9.70;99.90
38902;DHT22;24661;53.566;9.910;2023-05-07T06:42:19;9.70;99.90
38902;DHT22;24661;53.566;9.910;2023-05-07T06:44:44;9.80;99.90
38902;DHT22;24661;53.566;9.910;2023-05-07T06:47:10;9.80;99.90
38902;DHT22;24661;53.566;9.910;2023-05-07T06:49:35;9.70;99.90
38902;DHT22;24661;53.566;9.910;2023-05-07T06:52:02;9.90;99.90
38902;DHT22;24661;53.566;9.910;2023-05-07T06:54:29;9.90;99.90
38902;DHT22;24661;53.566;9.910;2023-05-07T06:56:54;9.90;99.90
38902;DHT22;24661;53.566;9.910;2023-05-07T06:59:20;9.90;99.90
38902;DHT22;24661;53.566;9.910;2023-05-07T07:01:45;10.00;99.90
38902;DHT22;24661;53.566;9.910;2023-05-07T07:04:11;9.90;99.90
38902;DHT22;24661;53.566;9.910;2023-05-07T07:06:37;10.00;99.90
38902;DHT22;24661;53.566;9.910;2023-05-07T07:09:02;10.00;99.90
38902;DHT22;24661;53.566;9.910;2023-05-07T07:11:28;10.00;99.90
38902;DHT22;24661;53.566;9.910;2023-05-07T07:13:53;10.00;99.90
38902;DHT22;24661;53.566;9.910;2023-05-07T07:16:20;10.00;99.90
38902;DHT22;24661;53.566;9.910;2023-05-07T07:18:46;9.90;99.90
38902;DHT22;24661;53.566;9.910;2023-05-07T07:21:12;10.00;99.90
38902;DHT22;24661;53.566;9.910;2023-05-07T07:23:37;10.10;99.90
38902;DHT22;24661;53.566;9.910;2023-05-07T07:26:03;10.30;99.90
38902;DHT22;24661;53.566;9.910;2023-05-07T07:28:28;10.30;99.90
38902;DHT22;24661;53.566;9.910;2023-05-07T07:30:54;10.30;99.90
38902;DHT22;24661;53.566;9.910;2023-05-07T07:33:20;10.30;99.90
38902;DHT22;24661;53.566;9.910;2023-05-07T07:35:45;10.40;99.90
38902;DHT22;24661;53.566;9.910;2023-05-07T07:38:11;10.30;99.90
38902;DHT22;24661;53.566;9.910;2023-05-07T07:40:36;10.30;99.90
38902;DHT22;24661;53.566;9.910;2023-05-07T07:43:02;10.30;99.90
38902;DHT22;24661;53.566;9.910;2023-05-07T07:45:28;10.30;99.90
38902;DHT22;24661;53.566;9.910;2023-05-07T07:47:54;10.30;99.90
38902;DHT22;24661;53.566;9.910;2023-05-07T07:50:20;10.50;99.90
38902;DHT22;24661;53.566;9.910;2023-05-07T07:52:45;10.60;99.90
38902;DHT22;24661;53.566;9.910;2023-05-07T07:55:11;10.50;99.90
38902;DHT22;24661;53.566;9.910;2023-05-07T07:57:37;10.50;99.90
38902;DHT22;24661;53.566;9.910;2023-05-07T08:00:03;10.40;99.90
38902;DHT22;24661;53.566;9.910;2023-05-07T08:02:29;10.60;99.90
38902;DHT22;24661;53.566;9.910;2023-05-07T08:04:55;10.80;99.90
38902;DHT22;24661;53.566;9.910;2023-05-07T08:07:20;10.90;99.90
38902;DHT22;24661;53.566;9.910;2023-05-07T08:09:48;10.90;99.90
38902;DHT22;24661;53.566;9.910;2023-05-07T08:12:13;11.10;99.90
38902;DHT22;24661;53.566;9.910;2023-05-07T08:14:39;11.10;99.90
38902;DHT22;24661;53.566;9.910;2023-05-07T08:17:04;11.10;99.90
38902;DHT22;24661;53.566;9.910;2023-05-07T08:19:30;11.00;99.90
38902;DHT22;24661;53.566;9.910;2023-05-07T08:21:56;10.80;99.90
38902;DHT22;24661;53.566;9.910;2023-05-07T08:24:21;10.80;99.90
38902;DHT22;24661;53.566;9.910;2023-05-07T08:26:47;10.90;99.90
38902;DHT22;24661;53.566;9.910;2023-05-07T08:29:12;11.10;99.90
38902;DHT22;24661;53.566;9.910;2023-05-07T08:31:38;11.00;99.90
38902;DHT22;24661;53.566;9.910;2023-05-07T08:34:05;10.80;99.90
38902;DHT22;24661;53.566;9.910;2023-05-07T08:36:32;10.70;99.90
38902;DHT22;24661;53.566;9.910;2023-05-07T08:38:57;10.80;99.90
38902;DHT22;24661;53.566;9.910;2023-05-07T08:41:23;10.80;99.90
38902;DHT22;24661;53.566;9.910;2023-05-07T08:43:49;10.80;99.90
38902;DHT22;24661;53.566;9.910;2023-05-07T08:46:19;10.70;99.90
38902;DHT22;24661;53.566;9.910;2023-05-07T08:48:46;10.80;99.90
38902;DHT22;24661;53.566;9.910;2023-05-07T08:51:14;10.90;99.90
38902;DHT22;24661;53.566;9.910;2023-05-07T08:53:41;10.90;99.90
38902;DHT22;24661;53.566;9.910;2023-05-07T08:56:08;11.00;99.90
38902;DHT22;24661;53.566;9.910;2023-05-07T08:58:34;11.10;99.90
38902;DHT22;24661;53.566;9.910;2023-05-07T09:01:03;11.00;99.90
38902;DHT22;24661;53.566;9.910;2023-05-07T09:03:31;11.10;99.90
38902;DHT22;24661;53.566;9.910;2023-05-07T09:05:57;11.30;99.90
38902;DHT22;24661;53.566;9.910;2023-05-07T09:08:25;11.30;99.90
38902;DHT22;24661;53.566;9.910;2023-05-07T09:10:52;11.50;99.90
38902;DHT22;24661;53.566;9.910;2023-05-07T09:13:17;11.70;99.90
38902;DHT22;24661;53.566;9.910;2023-05-07T09:15:43;11.70;99.90
38902;DHT22;24661;53.566;9.910;2023-05-07T09:18:09;11.60;99.90
38902;DHT22;24661;53.566;9.910;2023-05-07T09:20:36;11.60;99.90
38902;DHT22;24661;53.566;9.910;2023-05-07T09:23:02;11.80;99.90
38902;DHT22;24661;53.566;9.910;2023-05-07T09:25:32;12.00;99.90
38902;DHT22;24661;53.566;9.910;2023-05-07T09:27:59;11.90;99.90
38902;DHT22;24661;53.566;9.910;2023-05-07T09:30:30;12.00;99.90
38902;DHT22;24661;53.566;9.910;2023-05-07T09:32:58;11.90;99.90
38902;DHT22;24661;53.566;9.910;2023-05-07T09:35:25;11.90;99.90
38902;DHT22;24661;53.566;9.910;2023-05-07T09:37:57;12.00;99.90
38902;DHT22;24661;53.566;9.910;2023-05-07T09:40:25;12.00;99.90
38902;DHT22;24661;53.566;9.910;2023-05-07T09:42:51;12.10;99.90
38902;DHT22;24661;53.566;9.910;2023-05-07T09:45:27;12.20;99.90
38902;DHT22;24661;53.566;9.910;2023-05-07T09:47:57;12.30;99.90
38902;DHT22;24661;53.566;9.910;2023-05-07T09:50:29;12.50;99.90
38902;DHT22;24661;53.566;9.910;2023-05-07T09:52:56;12.40;99.90
38902;DHT22;24661;53.566;9.910;2023-05-07T09:55:22;12.30;99.90
38902;DHT22;24661;53.566;9.910;2023-05-07T09:57:51;12.30;99.90
38902;DHT22;24661;53.566;9.910;2023-05-07T10:00:19;12.30;99.90
38902;DHT22;24661;53.566;9.910;2023-05-07T10:02:50;12.10;99.90
38902;DHT22;24661;53.566;9.910;2023-05-07T10:05:18;12.00;99.90
38902;DHT22;24661;53.566;9.910;2023-05-07T10:07:46;12.00;99.90
38902;DHT22;24661;53.566;9.910;2023-05-07T10:10:12;12.10;99.90
38902;DHT22;24661;53.566;9.910;2023-05-07T10:12:38;12.20;99.90
38902;DHT22;24661;53.566;9.910;2023-05-07T10:15:11;12.30;99.90
38902;DHT22;24661;53.566;9.910;2023-05-07T10:17:38;12.30;99.90
38902;DHT22;24661;53.566;9.910;2023-05-07T10:20:08;12.40;99.90
38902;DHT22;24661;53.566;9.910;2023-05-07T10:22:55;12.30;99.90
38902;DHT22;24661;53.566;9.910;2023-05-07T10:25:28;12.20;99.90
38902;DHT22;24661;53.566;9.910;2023-05-07T10:27:55;12.20;99.90
38902;DHT22;24661;53.566;9.910;2023-05-07T10:32:54;12.30;99.90
38902;DHT22;24661;53.566;9.910;2023-05-07T10:35:24;12.50;99.90
38902;DHT22;24661;53.566;9.910;2023-05-07T10:37:50;12.50;99.90
38902;DHT22;24661;53.566;9.910;2023-05-07T10:40:16;12.70;99.90
38902;DHT22;24661;53.566;9.910;2023-05-07T10:42:59;12.80;99.90
38902;DHT22;24661;53.566;9.910;2023-05-07T10:45:25;12.80;99.90
38902;DHT22;24661;53.566;9.910;2023-05-07T10:48:13;12.70;99.90
38902;DHT22;24661;53.566;9.910;2023-05-07T10:50:44;12.80;99.90
38902;DHT22;24661;53.566;9.910;2023-05-07T10:53:21;12.50;99.90
38902;DHT22;24661;53.566;9.910;2023-05-07T10:55:50;12.30;99.90
38902;DHT22;24661;53.566;9.910;2023-05-07T10:58:29;12.60;99.90
38902;DHT22;24661;53.566;9.910;2023-05-07T11:00:59;12.80;99.90
38902;DHT22;24661;53.566;9.910;2023-05-07T11:03:26;13.10;99.90
38902;DHT22;24661;53.566;9.910;2023-05-07T11:06:15;12.80;99.90
38902;DHT22;24661;53.566;9.910;2023-05-07T11:08:57;12.70;99.90
38902;DHT22;24661;53.566;9.910;2023-05-07T11:11:48;12.90;99.90
38902;DHT22;24661;53.566;9.910;2023-05-07T11:14:43;12.90;99.90
38902;DHT22;24661;53.566;9.910;2023-05-07T11:17:10;13.10;99.90
38902;DHT22;24661;53.566;9.910;2023-05-07T11:19:56;13.10;99.90
38902;DHT22;24661;53.566;9.910;2023-05-07T11:24:59;13.20;99.90
38902;DHT22;24661;53.566;9.910;2023-05-07T11:27:28;13.20;99.90
38902;DHT22;24661;53.566;9.910;2023-05-07T11:29:55;13.10;99.90
38902;DHT22;24661;53.566;9.910;2023-05-07T11:32:28;13.20;99.90
38902;DHT22;24661;53.566;9.910;2023-05-07T11:34:56;13.40;99.90
38902;DHT22;24661;53.566;9.910;2023-05-07T11:37:23;13.60;99.90
38902;DHT22;24661;53.566;9.910;2023-05-07T11:39:49;13.50;99.90
38902;DHT22;24661;53.566;9.910;2023-05-07T11:42:27;13.70;99.90
38902;DHT22;24661;53.566;9.910;2023-05-07T11:44:53;12.00;99.90
38902;DHT22;24661;53.566;9.910;2023-05-07T11:47:19;13.60;99.90
38902;DHT22;24661;53.566;9.910;2023-05-07T11:49:53;13.70;99.90
38902;DHT22;24661;53.566;9.910;2023-05-07T11:52:20;13.70;99.90
38902;DHT22;24661;53.566;9.910;2023-05-07T11:54:50;13.80;99.90
38902;DHT22;24661;53.566;9.910;2023-05-07T11:57:16;14.00;99.90
38902;DHT22;24661;53.566;9.910;2023-05-07T11:59:42;14.20;99.90
38902;DHT22;24661;53.566;9.910;2023-05-07T12:02:10;14.20;99.90
38902;DHT22;24661;53.566;9.910;2023-05-07T12:04:37;14.30;99.90
38902;DHT22;24661;53.566;9.910;2023-05-07T12:07:03;14.40;99.90
38902;DHT22;24661;53.566;9.910;2023-05-07T12:09:29;14.30;99.90
38902;DHT22;24661;53.566;9.910;2023-05-07T12:11:55;14.50;99.90
38902;DHT22;24661;53.566;9.910;2023-05-07T12:14:21;14.60;99.90
38902;DHT22;24661;53.566;9.910;2023-05-07T12:16:47;14.70;99.90
38902;DHT22;24661;53.566;9.910;2023-05-07T12:19:13;14.50;99.90
38902;DHT22;24661;53.566;9.910;2023-05-07T12:21:40;14.40;99.90
38902;DHT22;24661;53.566;9.910;2023-05-07T12:24:07;14.30;99.90
38902;DHT22;24661;53.566;9.910;2023-05-07T12:26:37;14.10;99.90
38902;DHT22;24661;53.566;9.910;2023-05-07T12:29:03;14.30;99.90
38902;DHT22;24661;53.566;9.910;2023-05-07T12:31:29;14.50;99.90
38902;DHT22;24661;53.566;9.910;2023-05-07T12:33:54;14.70;99.90
38902;DHT22;24661;53.566;9.910;2023-05-07T12:36:20;14.90;99.90
38902;DHT22;24661;53.566;9.910;2023-05-07T12:38:49;15.20;99.90
38902;DHT22;24661;53.566;9.910;2023-05-07T12:41:15;15.50;99.90
38902;DHT22;24661;53.566;9.910;2023-05-07T12:43:44;15.60;99.90
38902;DHT22;24661;53.566;9.910;2023-05-07T12:46:10;15.70;99.90
38902;DHT22;24661;53.566;9.910;2023-05-07T12:48:37;15.90;99.90
38902;DHT22;24661;53.566;9.910;2023-05-07T12:51:03;16.00;99.90
38902;DHT22;24661;53.566;9.910;2023-05-07T12:53:30;16.00;99.90
38902;DHT22;24661;53.566;9.910;2023-05-07T12:55:58;15.80;99.90
38902;DHT22;24661;53.566;9.910;2023-05-07T12:58:27;15.70;99.90
38902;DHT22;24661;53.566;9.910;2023-05-07T13:00:54;15.50;99.90
38902;DHT22;24661;53.566;9.910;2023-05-07T13:03:34;15.10;99.90
38902;DHT22;24661;53.566;9.910;2023-05-07T13:06:02;14.90;99.90
38902;DHT22;24661;53.566;9.910;2023-05-07T13:08:30;14.90;99.90
38902;DHT22;24661;53.566;9.910;2023-05-07T13:11:01;14.50;99.90
38902;DHT22;24661;53.566;9.910;2023-05-07T13:13:31;14.50;99.90
38902;DHT22;24661;53.566;9.910;2023-05-07T13:15:57;14.50;99.90
38902;DHT22;24661;53.566;9.910;2023-05-07T13:18:23;14.70;99.90
38902;DHT22;24661;53.566;9.910;2023-05-07T13:20:49;15.00;99.90
38902;DHT22;24661;53.566;9.910;2023-05-07T13:23:15;15.00;99.90
38902;DHT22;24661;53.566;9.910;2023-05-07T13:25:40;15.10;99.90
38902;DHT22;24661;53.566;9.910;2023-05-07T13:28:06;15.00;99.90
38902;DHT22;24661;53.566;9.910;2023-05-07T13:30:31;15.40;99.90
38902;DHT22;24661;53.566;9.910;2023-05-07T13:32:57;14.80;99.90
38902;DHT22;24661;53.566;9.910;2023-05-07T13:35:23;15.60;99.90
38902;DHT22;24661;53.566;9.910;2023-05-07T13:37:48;14.90;99.90
38902;DHT22;24661;53.566;9.910;2023-05-07T13:40:14;15.10;99.90
38902;DHT22;24661;53.566;9.910;2023-05-07T13:42:40;15.20;99.90
38902;DHT22;24661;53.566;9.910;2023-05-07T13:45:07;15.40;99.90
38902;DHT22;24661;53.566;9.910;2023-05-07T13:47:33;15.20;99.90
38902;DHT22;24661;53.566;9.910;2023-05-07T13:49:58;15.30;99.90
38902;DHT22;24661;53.566;9.910;2023-05-07T13:52:24;15.40;99.90
38902;DHT22;24661;53.566;9.910;2023-05-07T13:54:49;15.60;99.90
38902;DHT22;24661;53.566;9.910;2023-05-07T13:57:17;15.70;99.90
38902;DHT22;24661;53.566;9.910;2023-05-07T13:59:43;15.10;99.90
38902;DHT22;24661;53.566;9.910;2023-05-07T14:02:10;15.80;99.90
38902;DHT22;24661;53.566;9.910;2023-05-07T14:04:36;15.90;99.90
38902;DHT22;24661;53.566;9.910;2023-05-07T14:07:02;15.90;99.90
38902;DHT22;24661;53.566;9.910;2023-05-07T14:09:28;15.90;99.90
38902;DHT22;24661;53.566;9.910;2023-05-07T14:11:54;15.90;99.90
38902;DHT22;24661;53.566;9.910;2023-05-07T14:14:19;16.00;99.90
38902;DHT22;24661;53.566;9.910;2023-05-07T14:16:45;15.90;99.90
38902;DHT22;24661;53.566;9.910;2023-05-07T14:19:11;15.60;99.90
38902;DHT22;24661;53.566;9.910;2023-05-07T14:21:37;15.80;99.90
38902;DHT22;24661;53.566;9.910;2023-05-07T14:24:03;16.00;99.90
38902;DHT22;24661;53.566;9.910;2023-05-07T14:26:28;15.90;99.90
38902;DHT22;24661;53.566;9.910;2023-05-07T14:28:54;16.10;99.90
38902;DHT22;24661;53.566;9.910;2023-05-07T14:31:22;16.10;99.90
38902;DHT22;24661;53.566;9.910;2023-05-07T14:33:48;16.20;99.90
38902;DHT22;24661;53.566;9.910;2023-05-07T14:36:18;16.40;99.90
38902;DHT22;24661;53.566;9.910;2023-05-07T14:38:48;16.60;99.90
38902;DHT22;24661;53.566;9.910;2023-05-07T14:41:14;16.60;99.90
38902;DHT22;24661;53.566;9.910;2023-05-07T14:43:40;16.50;99.90
38902;DHT22;24661;53.566;9.910;2023-05-07T14:46:05;16.70;99.90
38902;DHT22;24661;53.566;9.910;2023-05-07T14:48:31;16.90;99.90
38902;DHT22;24661;53.566;9.910;2023-05-07T14:50:57;17.00;99.90
38902;DHT22;24661;53.566;9.910;2023-05-07T14:53:24;16.90;99.90
38902;DHT22;24661;53.566;9.910;2023-05-07T14:55:50;16.90;99.90
38902;DHT22;24661;53.566;9.910;2023-05-07T14:58:16;16.90;99.90
38902;DHT22;24661;53.566;9.910;2023-05-07T15:00:42;16.90;99.90
38902;DHT22;24661;53.566;9.910;2023-05-07T15:03:09;16.70;99.90
38902;DHT22;24661;53.566;9.910;2023-05-07T15:05:35;16.70;99.90
38902;DHT22;24661;53.566;9.910;2023-05-07T15:08:01;16.70;99.90
38902;DHT22;24661;53.566;9.910;2023-05-07T15:10:26;16.50;99.90
38902;DHT22;24661;53.566;9.910;2023-05-07T15:12:52;16.50;99.90
38902;DHT22;24661;53.566;9.910;2023-05-07T15:15:18;16.60;99.90
38902;DHT22;24661;53.566;9.910;2023-05-07T15:17:43;16.70;99.90
38902;DHT22;24661;53.566;9.910;2023-05-07T15:20:09;16.60;99.90
38902;DHT22;24661;53.566;9.910;2023-05-07T15:22:36;16.60;99.90
38902;DHT22;24661;53.566;9.910;2023-05-07T15:25:03;16.40;99.90
38902;DHT22;24661;53.566;9.910;2023-05-07T15:27:30;16.20;99.90
38902;DHT22;24661;53.566;9.910;2023-05-07T15:29:56;16.40;99.90
38902;DHT22;24661;53.566;9.910;2023-05-07T15:32:22;16.30;99.90
38902;DHT22;24661;53.566;9.910;2023-05-07T15:34:47;16.30;99.90
38902;DHT22;24661;53.566;9.910;2023-05-07T15:37:13;16.40;99.90
38902;DHT22;24661;53.566;9.910;2023-05-07T15:39:39;16.50;99.90